Time;durP1;ratioP1;P1;durP2;ratioP2;P2;SDS_P1;SDS_P2;PMS_P1;PMS_P2;Temp;Humidity;BMP_temperature;BMP_pressure;BME280_temperature;BME280_humidity;BME280_pressure;Samples;Min_cycle;Max_cycle;Signal;HPM_P1;HPM_P2
2023/03/06 00:02:01;;;;;;;36.00;20.20;;;;;;;-3.64;76.88;99338.73;109683;1290;22184;-84
2023/03/06 00:04:39;;;;;;;29.90;18.30;;;;;;;-3.70;76.84;99337.84;109736;1291;22168;-87
2023/03/06 00:07:09;;;;;;;33.40;19.30;;;;;;;-3.77;76.94;99338.65;109695;1287;22275;-86
2023/03/06 00:10:32;;;;;;;34.30;20.00;;;;;;;-3.81;77.33;99337.00;109906;1281;22119;-86
2023/03/06 00:13:05;;;;;;;34.70;20.80;;;;;;;-3.83;77.26;99338.48;109904;1285;22168;-85
2023/03/06 00:16:00;;;;;;;36.60;19.70;;;;;;;-3.75;77.68;99339.59;109828;1287;22173;-85
2023/03/06 00:18:56;;;;;;;32.40;17.50;;;;;;;-3.65;77.37;99335.07;109810;1287;22155;-86
2023/03/06 00:21:31;;;;;;;33.70;19.20;;;;;;;-3.63;77.27;99338.58;109861;1288;22274;-86
2023/03/06 00:24:26;;;;;;;27.30;17.00;;;;;;;-3.64;77.15;99335.29;109643;1288;22230;-85
2023/03/06 00:26:53;;;;;;;33.00;21.70;;;;;;;-3.68;77.14;99342.04;109745;1287;22194;-86
2023/03/06 00:29:22;;;;;;;29.80;19.70;;;;;;;-3.68;77.29;99341.85;109536;1288;22284;-83
2023/03/06 00:31:51;;;;;;;29.70;17.80;;;;;;;-3.64;77.49;99341.64;109680;1288;22155;-84
2023/03/06 00:34:18;;;;;;;32.50;20.10;;;;;;;-3.62;77.16;99341.36;109706;1288;22222;-83
2023/03/06 00:37:12;;;;;;;29.80;17.90;;;;;;;-3.63;77.35;99343.23;109867;1283;22896;-82
2023/03/06 00:39:45;;;;;;;34.70;21.50;;;;;;;-3.62;77.33;99342.73;109970;1281;22132;-83
2023/03/06 00:42:13;;;;;;;38.60;21.90;;;;;;;-3.68;77.17;99342.73;109962;1281;22769;-84
2023/03/06 00:44:46;;;;;;;33.60;19.50;;;;;;;-3.70;77.35;99344.39;109951;1281;22736;-85
2023/03/06 00:47:17;;;;;;;29.60;18.60;;;;;;;-3.68;77.31;99341.34;109845;1286;22277;-83
2023/03/06 00:49:48;;;;;;;32.40;18.50;;;;;;;-3.65;77.30;99336.46;109749;1286;22214;-84
2023/03/06 00:52:24;;;;;;;30.50;17.90;;;;;;;-3.63;77.27;99339.45;109775;1286;22232;-87
2023/03/06 00:55:03;;;;;;;26.80;15.00;;;;;;;-3.60;77.41;99342.98;109733;1286;22483;-84
2023/03/06 00:58:05;;;;;;;38.20;21.10;;;;;;;-3.59;77.28;99336.83;109750;1286;22161;-84
2023/03/06 01:00:35;;;;;;;36.30;21.30;;;;;;;-3.58;77.06;99334.27;109700;1285;22248;-84
2023/03/06 01:03:06;;;;;;;37.60;21.20;;;;;;;-3.61;76.93;99335.23;109736;1285;22184;-84
2023/03/06 01:05:35;;;;;;;24.50;12.70;;;;;;;-3.57;77.23;99335.33;109787;1285;22259;-82
2023/03/06 01:08:09;;;;;;;29.50;16.30;;;;;;;-3.58;76.84;99334.25;109851;1286;22203;-84
2023/03/06 01:10:39;;;;;;;30.90;17.60;;;;;;;-3.61;76.93;99334.84;109119;1285;22932;-84
2023/03/06 01:13:08;;;;;;;28.20;17.20;;;;;;;-3.66;77.01;99329.20;109675;1279;23051;-84
2023/03/06 01:15:40;;;;;;;34.50;21.60;;;;;;;-3.69;76.98;99331.34;109754;1289;22160;-82
2023/03/06 01:18:21;;;;;;;29.80;16.80;;;;;;;-3.67;77.35;99326.92;109640;1291;22317;-83
2023/03/06 01:20:56;;;;;;;30.40;17.80;;;;;;;-3.69;77.14;99325.14;109231;1290;22188;-82
2023/03/06 01:23:55;;;;;;;29.40;17.30;;;;;;;-3.70;77.17;99327.02;109228;1296;22176;-82
2023/03/06 01:26:41;;;;;;;29.10;16.50;;;;;;;-3.72;77.30;99328.51;109142;1295;22187;-83
2023/03/06 01:29:16;;;;;;;28.30;16.60;;;;;;;-3.76;77.08;99330.94;109258;1290;22236;-83
2023/03/06 01:32:10;;;;;;;28.10;15.90;;;;;;;-3.80;77.16;99331.86;109129;1295;22163;-83
2023/03/06 01:34:54;;;;;;;;;;;;;;;;;;;;;
2023/03/06 01:37:25;;;;;;;25.60;15.00;;;;;;;-3.84;77.37;99327.08;108988;1295;22393;-82
2023/03/06 01:40:04;;;;;;;30.40;17.20;;;;;;;-3.82;77.44;99326.81;109599;1291;22421;-83
2023/03/06 01:42:37;;;;;;;29.90;18.40;;;;;;;-3.82;77.50;99322.17;109186;1287;22272;-82
2023/03/06 01:45:53;;;;;;;38.00;19.60;;;;;;;-3.86;77.59;99323.58;109432;1292;22275;-82
2023/03/06 01:48:23;;;;;;;29.90;17.80;;;;;;;-3.89;77.57;99317.64;109097;1294;22244;-83
2023/03/06 01:51:18;;;;;;;26.00;14.30;;;;;;;-3.86;77.92;99316.02;109036;1297;22180;-82
2023/03/06 01:53:49;;;;;;;23.40;14.30;;;;;;;-3.82;77.77;99316.16;108339;1302;22185;-83
2023/03/06 01:56:20;;;;;;;21.00;11.60;;;;;;;-3.82;77.67;99314.95;108268;1303;22191;-82
2023/03/06 01:58:52;;;;;;;37.00;20.40;;;;;;;-3.85;77.60;99312.96;108363;1302;22247;-83
2023/03/06 02:01:20;;;;;;;33.50;20.20;;;;;;;-3.82;77.76;99310.64;108674;1298;22151;-83
2023/03/06 02:03:56;;;;;;;29.30;16.30;;;;;;;-3.75;77.80;99308.45;108797;1298;22152;-84
2023/03/06 02:06:43;;;;;;;29.60;18.00;;;;;;;-3.73;77.67;99313.15;108753;1298;22133;-83
2023/03/06 02:09:32;;;;;;;;;;;;;;;-3.75;77.47;99309.84;108989;1294;22449;-84
2023/03/06 02:12:19;;;;;;;29.20;17.30;;;;;;;-3.77;77.67;99312.86;109382;1287;22168;-84
2023/03/06 02:14:48;;;;;;;24.10;12.30;;;;;;;-3.78;77.60;99313.36;109644;1287;22167;-84
2023/03/06 02:17:22;;;;;;;27.60;16.60;;;;;;;-3.76;77.59;99309.95;109692;1287;22174;-83
2023/03/06 02:20:21;;;;;;;30.70;14.80;;;;;;;-3.76;77.55;99313.59;109731;1287;22152;-84
2023/03/06 02:23:30;;;;;;;27.70;16.30;;;;;;;-3.76;77.63;99312.88;109244;1283;22426;-84
2023/03/06 02:26:02;;;;;;;31.50;18.00;;;;;;;-3.75;77.69;99314.46;109153;1294;22156;-83
2023/03/06 02:28:58;;;;;;;34.30;19.20;;;;;;;-3.75;77.62;99311.38;108972;1290;22190;-84
2023/03/06 02:31:54;;;;;;;28.60;13.90;;;;;;;-3.72;77.62;99313.16;108507;1300;22904;-84
2023/03/06 02:34:21;;;;;;;31.60;17.20;;;;;;;-3.70;77.56;99312.71;108495;1298;22189;-85
2023/03/06 02:37:08;;;;;;;26.50;15.10;;;;;;;-3.69;77.48;99311.72;108262;1302;22382;-84
2023/03/06 02:39:39;;;;;;;;;;;;;;;-3.71;77.39;99309.23;108307;1302;22460;-85
2023/03/06 02:42:08;;;;;;;27.00;15.40;;;;;;;-3.76;77.42;99311.00;108853;1298;22406;-83
2023/03/06 02:44:36;;;;;;;28.20;15.70;;;;;;;-3.79;77.50;99311.27;108649;1298;22269;-86
2023/03/06 02:47:11;;;;;;;26.30;15.90;;;;;;;-3.79;77.45;99308.85;108666;1286;22187;-82
2023/03/06 02:49:47;;;;;;;26.00;16.10;;;;;;;-3.82;77.38;99309.77;108795;1298;22716;-84
2023/03/06 02:52:16;;;;;;;28.40;16.10;;;;;;;-3.84;77.76;99310.91;108600;1298;22206;-84
2023/03/06 02:54:46;;;;;;;26.10;15.10;;;;;;;-3.84;77.56;99310.77;108397;1292;22268;-83
2023/03/06 02:57:18;;;;;;;29.60;17.30;;;;;;;-3.83;77.70;99311.11;109172;1294;22210;-85
2023/03/06 02:59:51;;;;;;;30.50;17.20;;;;;;;-3.79;77.62;99306.63;109342;1290;22214;-86
2023/03/06 03:02:28;;;;;;;29.50;15.80;;;;;;;-3.77;77.59;99308.05;109026;1288;22215;-84
2023/03/06 03:05:03;;;;;;;26.30;14.40;;;;;;;-3.76;77.54;99308.42;109704;1288;22245;-83
2023/03/06 03:10:29;;;;;;;29.50;15.50;;;;;;;-3.80;77.42;99305.20;109659;1287;22179;-83
2023/03/06 03:13:03;;;;;;;29.40;16.80;;;;;;;-3.83;77.41;99305.77;109584;1275;22387;-85
2023/03/06 03:16:00;;;;;;;29.70;18.00;;;;;;;-3.83;77.66;99304.92;109671;1289;22451;-84
2023/03/06 03:19:08;;;;;;;28.20;16.40;;;;;;;-3.80;77.68;99307.10;109629;1287;22170;-83
2023/03/06 03:21:50;;;;;;;27.40;15.10;;;;;;;-3.78;77.67;99306.10;109740;1281;22935;-84
2023/03/06 03:24:25;;;;;;;20.10;11.40;;;;;;;-3.78;77.63;99309.04;109575;1289;22365;-84
2023/03/06 03:27:20;;;;;;;23.10;14.30;;;;;;;-3.81;77.48;99308.09;109595;1289;22152;-84
2023/03/06 03:29:52;;;;;;;26.30;17.00;;;;;;;-3.79;77.46;99311.23;109724;1286;22179;-84
2023/03/06 03:32:25;;;;;;;25.70;15.70;;;;;;;-3.78;77.47;99309.89;109468;1289;22150;-84
2023/03/06 03:34:56;;;;;;;24.60;14.70;;;;;;;-3.77;77.39;99301.50;108837;1296;22193;-85
2023/03/06 03:37:35;;;;;;;21.40;14.10;;;;;;;-3.75;77.35;99302.10;108945;1280;22181;-84
2023/03/06 03:40:13;;;;;;;26.60;16.40;;;;;;;-3.75;77.36;99302.08;108946;1296;23067;-85
2023/03/06 03:43:00;;;;;;;;;;;;;;;;;;;;;
2023/03/06 03:45:35;;;;;;;27.40;15.10;;;;;;;-3.81;77.20;99303.61;109251;1293;22441;-84
2023/03/06 03:48:07;;;;;;;24.80;14.50;;;;;;;-3.81;77.35;99301.73;109316;1293;22403;-84
2023/03/06 03:50:42;;;;;;;28.60;17.20;;;;;;;-3.83;77.17;99297.00;108597;1299;22174;-85
2023/03/06 03:53:19;;;;;;;27.70;15.80;;;;;;;-3.86;77.42;99299.84;108955;1283;22182;-83
2023/03/06 03:55:49;;;;;;;25.40;14.90;;;;;;;-3.84;77.49;99295.08;109458;1290;23193;-85
2023/03/06 03:58:24;;;;;;;27.70;15.20;;;;;;;-3.84;77.41;99296.48;109481;1291;22267;-84
2023/03/06 04:00:53;;;;;;;29.20;17.70;;;;;;;-3.89;77.26;99298.02;109543;1291;22173;-84
2023/03/06 04:03:33;;;;;;;26.50;14.60;;;;;;;-3.91;77.34;99294.54;109654;1286;22225;-85
2023/03/06 04:06:01;;;;;;;25.20;14.00;;;;;;;-3.88;77.46;99295.29;109871;1267;22184;-83
2023/03/06 04:08:32;;;;;;;26.20;15.60;;;;;;;-3.86;77.48;99293.84;109856;1285;23043;-83
2023/03/06 04:11:03;;;;;;;24.60;15.30;;;;;;;-3.82;77.53;99290.16;109538;1289;22201;-83
2023/03/06 04:13:31;;;;;;;23.80;14.50;;;;;;;-3.79;77.50;99291.14;108923;1296;22900;-83
2023/03/06 04:16:02;;;;;;;31.20;17.60;;;;;;;-3.79;77.28;99289.40;108981;1296;22190;-83
2023/03/06 04:18:32;;;;;;;22.70;13.00;;;;;;;-3.76;77.27;99289.48;109059;1295;22408;-82
2023/03/06 04:21:28;;;;;;;26.30;14.50;;;;;;;-3.79;76.76;99286.98;109232;1289;22162;-84
2023/03/06 04:24:00;;;;;;;26.40;16.00;;;;;;;-3.85;77.04;99289.39;109248;1291;22173;-84
2023/03/06 04:26:30;;;;;;;30.90;15.60;;;;;;;-3.89;76.95;99283.22;109579;1285;22356;-83
2023/03/06 04:29:03;;;;;;;30.30;17.40;;;;;;;-3.92;77.13;99285.21;109085;1293;22163;-84
2023/03/06 04:31:34;;;;;;;27.70;17.30;;;;;;;-3.98;76.92;99284.86;109025;1291;22174;-82
2023/03/06 04:34:04;;;;;;;24.60;13.90;;;;;;;-4.00;77.27;99285.32;109446;1292;23067;-83
2023/03/06 04:36:46;;;;;;;23.20;15.00;;;;;;;-4.00;77.23;99283.07;109292;1285;22144;-83
2023/03/06 04:39:17;;;;;;;29.20;16.40;;;;;;;-4.02;77.29;99281.99;109327;1292;22127;-85
2023/03/06 04:41:52;;;;;;;30.20;16.70;;;;;;;-4.02;77.37;99279.90;109071;1290;22176;-85
2023/03/06 04:44:29;;;;;;;29.90;18.10;;;;;;;-4.02;77.35;99277.67;109269;1292;22112;-81
2023/03/06 04:47:04;;;;;;;27.00;16.30;;;;;;;-4.01;77.25;99273.40;109118;1292;22180;-85
2023/03/06 04:50:02;;;;;;;24.30;14.30;;;;;;;-4.06;77.22;99275.30;109404;1288;22833;-84
2023/03/06 04:52:34;;;;;;;18.60;11.50;;;;;;;-4.08;77.58;99279.20;109098;1294;22424;-83
2023/03/06 04:55:14;;;;;;;28.80;16.50;;;;;;;-4.07;77.45;99272.53;103441;1296;7249124;-85
2023/03/06 04:57:57;;;;;;;26.30;15.10;;;;;;;-4.10;77.44;99274.84;108853;1295;22450;-84
2023/03/06 05:00:29;;;;;;;22.10;14.80;;;;;;;-4.10;77.45;99272.42;108684;1296;22169;-84
2023/03/06 05:03:01;;;;;;;26.00;15.30;;;;;;;-4.11;77.49;99268.77;108796;1295;22256;-85
2023/03/06 05:05:30;;;;;;;18.90;10.00;;;;;;;-4.09;77.56;99268.52;108138;1301;22234;-84
2023/03/06 05:08:06;;;;;;;27.90;15.00;;;;;;;-4.12;77.45;99265.16;107986;1303;22917;-83
2023/03/06 05:10:35;;;;;;;32.80;18.80;;;;;;;-4.12;77.51;99264.29;107362;1304;22224;-84
2023/03/06 05:13:09;;;;;;;25.50;15.50;;;;;;;-4.13;77.53;99268.21;107953;1299;23093;-84
2023/03/06 05:15:40;;;;;;;22.30;15.40;;;;;;;-4.12;77.53;99272.89;108514;1297;22137;-84
2023/03/06 05:18:11;;;;;;;27.20;15.10;;;;;;;-4.11;77.80;99268.11;108828;1294;22933;-84
2023/03/06 05:21:05;;;;;;;28.60;17.40;;;;;;;-4.10;77.64;99265.73;108812;1289;22176;-85
2023/03/06 05:23:37;;;;;;;32.50;19.80;;;;;;;-4.09;77.82;99269.38;108895;1295;22183;-82
2023/03/06 05:26:19;;;;;;;35.70;19.40;;;;;;;-4.00;77.89;99269.64;108535;1287;22661;-81
2023/03/06 05:28:54;;;;;;;28.00;17.40;;;;;;;-3.96;77.60;99267.52;108855;1292;22173;-82
2023/03/06 05:31:23;;;;;;;30.00;17.20;;;;;;;-3.94;77.73;99262.77;109270;1292;22846;-82
2023/03/06 05:34:15;;;;;;;29.70;15.20;;;;;;;-3.86;77.80;99264.23;109294;1292;22939;-82
2023/03/06 05:36:47;;;;;;;27.70;15.80;;;;;;;-3.87;77.61;99266.27;109405;1286;22242;-83
2023/03/06 05:39:20;;;;;;;32.80;19.00;;;;;;;-3.83;77.73;99265.70;109667;1286;22245;-83
2023/03/06 05:41:49;;;;;;;31.70;18.80;;;;;;;-3.75;77.86;99261.13;109625;1286;22175;-84
2023/03/06 05:44:19;;;;;;;30.70;18.70;;;;;;;-3.67;77.53;99259.81;109686;1286;22846;-81
2023/03/06 05:46:49;;;;;;;26.80;16.20;;;;;;;-3.65;77.25;99263.13;109378;1287;22184;-81
2023/03/06 05:49:19;;;;;;;27.40;16.00;;;;;;;-3.67;77.03;99268.76;109594;1287;22817;-84
2023/03/06 05:51:53;;;;;;;29.10;15.70;;;;;;;-3.68;77.02;99267.52;109167;1291;22148;-84
2023/03/06 05:55:00;;;;;;;21.70;13.30;;;;;;;-3.64;77.25;99267.12;108767;1297;22959;-82
2023/03/06 05:57:30;;;;;;;25.80;16.00;;;;;;;-3.62;77.15;99270.30;108653;1297;22374;-80
2023/03/06 06:01:52;;;;;;;28.20;17.90;;;;;;;-3.50;77.15;99271.85;104415;1312;558036;-88
2023/03/06 06:04:22;;;;;;;31.60;16.80;;;;;;;-3.45;77.00;99269.23;107099;1283;22653;-85
2023/03/06 06:07:16;;;;;;;26.20;14.10;;;;;;;-3.48;76.93;99271.56;107219;1284;23168;-84
2023/03/06 06:09:47;;;;;;;26.50;16.10;;;;;;;-3.48;76.94;99274.14;107811;1275;22828;-83
2023/03/06 06:12:14;;;;;;;31.60;18.90;;;;;;;-3.49;76.97;99273.60;108299;1283;22487;-80
2023/03/06 06:14:46;;;;;;;26.60;15.40;;;;;;;-3.42;77.27;99274.84;107268;1281;1401634;-83
2023/03/06 06:17:29;;;;;;;30.80;16.90;;;;;;;-3.38;77.00;99270.80;108077;1276;22567;-84
2023/03/06 06:19:59;;;;;;;25.80;13.60;;;;;;;-3.33;76.84;99273.35;107454;1281;22538;-86
2023/03/06 06:22:36;;;;;;;25.20;15.60;;;;;;;-3.37;76.76;99276.88;107359;1281;22551;-85
2023/03/06 06:25:16;;;;;;;23.80;15.30;;;;;;;-3.38;76.83;99276.52;107158;1266;22534;-86
2023/03/06 06:27:55;;;;;;;32.40;18.50;;;;;;;-3.33;77.21;99274.23;106881;1272;22612;-84
